createdAt,value
2023-04-18T00:01:25.705Z,48.40
2023-04-18T00:03:52.887Z,47.00
2023-04-18T00:06:22.306Z,47.50
2023-04-18T00:08:49.467Z,46.50
2023-04-18T00:11:16.540Z,46.80
2023-04-18T00:13:44.517Z,47.30
2023-04-18T00:16:13.374Z,46.60
2023-04-18T00:18:40.828Z,46.20
2023-04-18T00:21:08.825Z,46.00
2023-04-18T00:23:36.165Z,45.80
2023-04-18T00:26:03.379Z,45.60
2023-04-18T00:28:30.419Z,46.10
2023-04-18T00:30:57.521Z,46.40
2023-04-18T00:33:24.768Z,46.70
2023-04-18T00:35:51.951Z,47.00
2023-04-18T00:38:19.003Z,47.50
2023-04-18T00:40:46.118Z,48.00
2023-04-18T00:43:14.830Z,48.40
2023-04-18T00:45:41.982Z,49.00
2023-04-18T00:48:10.352Z,48.60
2023-04-18T00:50:38.583Z,48.30
2023-04-18T00:53:06.202Z,48.60
2023-04-18T00:55:33.470Z,48.50
2023-04-18T00:58:00.919Z,48.60
2023-04-18T01:00:28.135Z,49.20
2023-04-18T01:02:56.133Z,50.60
2023-04-18T01:05:23.731Z,50.40
2023-04-18T01:07:50.853Z,50.50
2023-04-18T01:10:18.554Z,50.80
2023-04-18T01:12:45.738Z,50.90
2023-04-18T01:15:12.799Z,50.50
2023-04-18T01:17:39.910Z,50.30
2023-04-18T01:20:08.019Z,50.70
2023-04-18T01:22:35.091Z,50.90
2023-04-18T01:25:08.407Z,50.60
2023-04-18T01:27:35.531Z,50.70
2023-04-18T01:30:02.691Z,50.90
2023-04-18T01:32:29.745Z,51.00
2023-04-18T01:34:56.892Z,51.20
2023-04-18T01:37:23.923Z,51.10
2023-04-18T01:39:51.030Z,51.40
2023-04-18T01:42:17.960Z,51.80
2023-04-18T01:44:45.059Z,51.60
2023-04-18T01:47:12.106Z,51.60
2023-04-18T01:49:39.681Z,52.10
2023-04-18T01:52:06.676Z,52.30
2023-04-18T01:54:33.737Z,52.40
2023-04-18T01:57:01.775Z,52.60
2023-04-18T01:59:28.876Z,52.70
2023-04-18T02:01:56.017Z,53.20
2023-04-18T02:04:23.212Z,53.50
2023-04-18T02:06:50.387Z,53.60
2023-04-18T02:09:17.336Z,54.00
2023-04-18T02:11:44.375Z,54.00
2023-04-18T02:14:11.872Z,54.10
2023-04-18T02:16:39.094Z,54.30
2023-04-18T02:19:07.485Z,54.40
2023-04-18T02:21:34.558Z,54.30
2023-04-18T02:24:01.515Z,54.90
2023-04-18T02:26:28.494Z,55.10
2023-04-18T02:28:55.779Z,54.60
2023-04-18T02:31:22.866Z,54.70
2023-04-18T02:33:49.906Z,54.80
2023-04-18T02:36:16.873Z,55.20
2023-04-18T02:38:45.640Z,55.00
2023-04-18T02:41:15.405Z,54.90
2023-04-18T02:43:42.504Z,55.20
2023-04-18T02:46:09.558Z,55.80
2023-04-18T02:48:36.587Z,56.00
2023-04-18T02:51:08.240Z,55.70
2023-04-18T02:53:35.844Z,56.10
2023-04-18T02:56:03.160Z,56.10
2023-04-18T02:58:30.445Z,56.10
2023-04-18T03:00:58.222Z,56.10
2023-04-18T03:03:25.983Z,56.30
2023-04-18T03:05:53.089Z,55.50
2023-04-18T03:08:20.241Z,55.60
2023-04-18T03:10:47.186Z,55.40
2023-04-18T03:13:14.107Z,54.90
2023-04-18T03:15:41.325Z,55.30
2023-04-18T03:18:08.588Z,55.30
2023-04-18T03:20:38.583Z,55.70
2023-04-18T03:23:05.610Z,55.90
2023-04-18T03:25:32.738Z,55.60
2023-04-18T03:28:00.100Z,55.50
2023-04-18T03:30:27.210Z,55.80
2023-04-18T03:32:56.322Z,56.00
2023-04-18T03:35:23.640Z,55.70
2023-04-18T03:37:50.836Z,55.80
2023-04-18T03:40:19.199Z,55.90
2023-04-18T03:42:46.160Z,56.20
2023-04-18T03:45:13.286Z,56.20
2023-04-18T03:47:40.444Z,56.00
2023-04-18T03:50:07.695Z,56.30
2023-04-18T03:52:34.673Z,55.80
2023-04-18T03:55:01.831Z,55.90
2023-04-18T03:57:28.846Z,55.60
2023-04-18T03:59:55.861Z,55.80
2023-04-18T04:02:23.074Z,55.90
2023-04-18T04:04:50.144Z,56.10
2023-04-18T04:07:17.117Z,55.90
2023-04-18T04:09:44.087Z,55.70
2023-04-18T04:12:11.023Z,55.70
2023-04-18T04:14:38.082Z,56.10
2023-04-18T04:17:05.615Z,55.80
2023-04-18T04:19:33.002Z,55.40
2023-04-18T04:22:00.099Z,55.60
2023-04-18T04:24:29.275Z,55.60
2023-04-18T04:26:57.261Z,55.60
2023-04-18T04:29:24.370Z,55.80
2023-04-18T04:31:51.322Z,56.00
2023-04-18T04:34:18.365Z,56.20
2023-04-18T04:36:45.617Z,56.00
2023-04-18T04:39:12.985Z,56.50
2023-04-18T04:41:40.362Z,56.20
2023-04-18T04:44:08.062Z,56.60
2023-04-18T04:46:35.410Z,56.50
2023-04-18T04:49:02.471Z,56.70
2023-04-18T04:51:29.480Z,56.50
2023-04-18T04:53:56.331Z,56.60
2023-04-18T04:56:23.905Z,56.70
2023-04-18T04:58:50.898Z,57.50
2023-04-18T05:01:18.232Z,57.40
2023-04-18T05:03:45.598Z,57.60
2023-04-18T05:06:12.912Z,57.30
2023-04-18T05:08:39.955Z,57.20
2023-04-18T05:11:07.028Z,56.80
2023-04-18T05:13:34.219Z,56.50
2023-04-18T05:16:02.016Z,56.60
2023-04-18T05:18:29.024Z,56.10
2023-04-18T05:20:56.994Z,56.00
2023-04-18T05:23:24.156Z,55.90
2023-04-18T05:25:51.347Z,56.00
2023-04-18T05:28:18.529Z,55.90
2023-04-18T05:30:45.627Z,56.30
2023-04-18T05:33:12.623Z,56.20
2023-04-18T05:35:39.642Z,56.60
2023-04-18T05:38:06.988Z,55.40
2023-04-18T05:40:34.121Z,55.60
2023-04-18T05:43:01.461Z,55.50
2023-04-18T05:45:28.526Z,55.80
2023-04-18T05:47:55.566Z,55.70
2023-04-18T05:50:23.384Z,55.40
2023-04-18T05:52:50.586Z,53.80
2023-04-18T05:55:17.655Z,51.90
2023-04-18T05:57:44.625Z,51.00
2023-04-18T06:00:12.406Z,49.00
2023-04-18T06:02:39.788Z,47.70
2023-04-18T06:05:08.057Z,45.80
2023-04-18T06:07:35.631Z,45.40
2023-04-18T06:10:02.731Z,45.60
2023-04-18T06:12:29.747Z,45.10
2023-04-18T06:14:56.769Z,44.60
2023-04-18T06:17:23.796Z,44.30
2023-04-18T06:19:51.013Z,43.70
2023-04-18T06:22:18.185Z,43.50
2023-04-18T06:24:45.230Z,43.70
2023-04-18T06:27:24.151Z,42.90
2023-04-18T06:29:55.269Z,43.50
2023-04-18T06:32:22.291Z,44.30
2023-04-18T06:34:51.218Z,44.60
2023-04-18T06:37:18.242Z,43.50
2023-04-18T06:39:46.123Z,43.00
2023-04-18T06:42:13.158Z,42.60
2023-04-18T06:44:40.139Z,42.90
2023-04-18T06:47:07.095Z,42.30
2023-04-18T06:49:34.120Z,42.80
2023-04-18T06:52:01.161Z,42.00
2023-04-18T06:54:28.120Z,41.90
2023-04-18T06:56:55.172Z,41.70
2023-04-18T06:59:22.294Z,41.60
2023-04-18T07:01:49.658Z,41.30
2023-04-18T07:04:16.907Z,41.30
2023-04-18T07:06:44.283Z,41.20
2023-04-18T07:09:11.518Z,39.70
2023-04-18T07:11:39.586Z,39.20
2023-04-18T07:14:06.605Z,38.80
2023-04-18T07:16:33.653Z,38.60
2023-04-18T07:19:01.057Z,38.10
2023-04-18T07:21:28.134Z,38.00
2023-04-18T07:23:55.474Z,38.50
2023-04-18T07:26:23.493Z,38.50
2023-04-18T07:28:52.187Z,38.40
2023-04-18T07:31:19.589Z,38.90
2023-04-18T07:33:46.605Z,38.30
2023-04-18T07:36:13.643Z,38.50
2023-04-18T07:38:40.713Z,37.60
2023-04-18T07:41:07.886Z,37.90
2023-04-18T07:43:34.925Z,37.70
2023-04-18T07:46:02.196Z,38.10
2023-04-18T07:48:29.233Z,37.60
2023-04-18T07:50:56.326Z,37.40
2023-04-18T07:53:23.486Z,38.00
2023-04-18T07:55:50.877Z,37.30
2023-04-18T07:58:18.016Z,37.40
2023-04-18T08:00:45.180Z,37.30
2023-04-18T08:03:15.969Z,36.90
2023-04-18T08:05:43.506Z,36.40
2023-04-18T08:08:12.384Z,36.60
2023-04-18T08:10:39.604Z,36.40
2023-04-18T08:13:07.230Z,36.20
2023-04-18T08:15:34.335Z,35.50
2023-04-18T08:18:02.100Z,35.20
2023-04-18T08:20:29.340Z,35.00
2023-04-18T08:25:26.294Z,34.10
2023-04-18T08:27:53.310Z,33.50
2023-04-18T08:30:20.301Z,33.80
2023-04-18T08:32:47.434Z,33.60
2023-04-18T08:35:14.603Z,33.60
2023-04-18T08:37:41.838Z,33.60
2023-04-18T08:40:09.365Z,33.30
2023-04-18T08:42:38.442Z,32.90
2023-04-18T08:45:09.718Z,32.80
2023-04-18T08:47:37.037Z,33.60
2023-04-18T08:50:04.840Z,32.10
2023-04-18T08:52:32.730Z,31.60
2023-04-18T08:54:59.782Z,33.20
2023-04-18T08:57:27.154Z,31.70
2023-04-18T08:59:55.377Z,31.60
2023-04-18T09:02:35.188Z,31.70
2023-04-18T09:05:15.039Z,31.70
2023-04-18T09:07:42.889Z,31.50
2023-04-18T09:10:11.390Z,31.60
2023-04-18T09:12:50.654Z,31.70
2023-04-18T09:15:23.830Z,31.30
2023-04-18T09:17:54.753Z,30.40
2023-04-18T09:20:35.786Z,29.90
2023-04-18T09:23:05.391Z,29.70
2023-04-18T09:25:39.081Z,28.80
2023-04-18T09:28:31.308Z,29.50
2023-04-18T09:31:09.404Z,29.60
2023-04-18T09:33:37.153Z,29.30
2023-04-18T09:36:20.401Z,29.70
2023-04-18T09:38:55.948Z,29.30
2023-04-18T09:41:23.430Z,29.10
2023-04-18T09:43:50.684Z,29.70
2023-04-18T09:46:18.044Z,29.10
2023-04-18T09:48:45.112Z,28.80
2023-04-18T09:51:15.848Z,28.30
2023-04-18T09:53:50.521Z,28.90
2023-04-18T09:56:28.130Z,28.40
2023-04-18T09:59:10.031Z,28.80
2023-04-18T10:01:37.917Z,28.80
2023-04-18T10:04:09.115Z,28.20
2023-04-18T10:06:40.757Z,28.60
2023-04-18T10:09:09.621Z,28.10
2023-04-18T10:11:37.212Z,28.30
2023-04-18T10:14:10.168Z,28.50
2023-04-18T10:16:38.841Z,29.10
2023-04-18T10:19:21.899Z,28.40
2023-04-18T10:21:53.741Z,28.80
2023-04-18T10:24:45.692Z,28.80
2023-04-18T10:27:12.684Z,29.70
2023-04-18T10:29:50.188Z,28.30
2023-04-18T10:32:24.435Z,29.00
2023-04-18T10:34:54.289Z,28.60
2023-04-18T10:37:21.393Z,28.60
2023-04-18T10:39:51.069Z,28.60
2023-04-18T10:42:18.966Z,28.70
2023-04-18T10:45:22.484Z,28.80
2023-04-18T10:47:50.003Z,28.50
2023-04-18T10:50:17.792Z,28.30
2023-04-18T10:52:44.967Z,28.10
2023-04-18T10:55:24.450Z,28.80
2023-04-18T10:57:52.093Z,28.70
2023-04-18T11:00:21.654Z,28.00
2023-04-18T11:02:57.834Z,27.90
2023-04-18T11:05:27.893Z,27.90
2023-04-18T11:07:55.360Z,28.60
2023-04-18T11:10:27.062Z,28.50
2023-04-18T11:12:55.702Z,27.80
2023-04-18T11:15:24.837Z,28.40
2023-04-18T11:18:02.225Z,27.70
2023-04-18T11:20:37.190Z,27.90
2023-04-18T11:23:04.189Z,27.80
2023-04-18T11:25:36.667Z,28.20
2023-04-18T11:28:04.774Z,27.90
2023-04-18T11:30:41.602Z,26.80
2023-04-18T11:33:12.943Z,26.50
2023-04-18T11:35:41.538Z,26.80
2023-04-18T11:38:10.655Z,27.10
2023-04-18T11:40:37.882Z,26.40
2023-04-18T11:43:06.515Z,26.40
2023-04-18T11:45:33.654Z,27.00
2023-04-18T11:48:01.350Z,27.10
2023-04-18T11:50:28.597Z,26.90
2023-04-18T11:52:56.085Z,26.10
2023-04-18T11:55:27.320Z,26.30
2023-04-18T11:57:55.748Z,26.60
2023-04-18T12:00:39.768Z,26.90
2023-04-18T12:03:12.580Z,27.20
2023-04-18T12:05:42.398Z,27.30
2023-04-18T12:08:19.853Z,27.80
2023-04-18T12:10:50.664Z,27.30
2023-04-18T12:13:18.686Z,27.00
2023-04-18T12:15:46.896Z,27.70
2023-04-18T12:18:16.835Z,27.50
2023-04-18T12:20:50.376Z,28.10
2023-04-18T12:23:32.658Z,27.50
2023-04-18T12:26:13.990Z,28.00
2023-04-18T12:28:46.085Z,28.40
2023-04-18T12:31:13.182Z,27.90
2023-04-18T12:33:40.339Z,27.90
2023-04-18T12:36:12.668Z,26.50
2023-04-18T12:38:39.611Z,26.50
2023-04-18T12:41:06.682Z,26.80
2023-04-18T12:43:33.846Z,26.10
2023-04-18T12:46:01.273Z,26.90
2023-04-18T12:48:28.631Z,27.20
2023-04-18T12:50:55.911Z,27.60
2023-04-18T12:53:22.933Z,27.60
2023-04-18T12:55:49.945Z,27.30
2023-04-18T12:58:18.857Z,27.20
2023-04-18T13:00:46.334Z,27.60
2023-04-18T13:03:14.934Z,28.20
2023-04-18T13:05:42.160Z,27.50
2023-04-18T13:08:17.129Z,27.60
2023-04-18T13:10:48.370Z,27.20
2023-04-18T13:13:17.078Z,27.30
2023-04-18T13:15:53.402Z,27.20
2023-04-18T13:18:20.909Z,27.70
2023-04-18T13:20:49.587Z,28.20
2023-04-18T13:23:16.581Z,28.00
2023-04-18T13:25:50.376Z,28.50
2023-04-18T13:28:17.457Z,28.60
2023-04-18T13:30:44.558Z,28.20
2023-04-18T13:33:11.536Z,27.90
2023-04-18T13:35:38.674Z,27.70
2023-04-18T13:38:05.855Z,28.40
2023-04-18T13:40:33.715Z,28.60
2023-04-18T13:43:01.984Z,29.00
2023-04-18T13:45:29.031Z,29.00
2023-04-18T13:47:56.198Z,29.70
2023-04-18T13:50:23.356Z,29.70
2023-04-18T13:52:52.034Z,30.10
2023-04-18T13:55:19.933Z,29.70
2023-04-18T13:57:46.905Z,30.20
2023-04-18T14:00:14.373Z,30.30
2023-04-18T14:02:41.652Z,30.00
2023-04-18T14:05:09.330Z,29.80
2023-04-18T14:07:38.378Z,29.80
2023-04-18T14:10:05.932Z,30.50
2023-04-18T14:12:32.918Z,30.00
2023-04-18T14:14:59.866Z,30.50
2023-04-18T14:17:26.785Z,30.50
2023-04-18T14:19:53.899Z,30.40
2023-04-18T14:22:20.870Z,30.80
2023-04-18T14:24:47.718Z,31.00
2023-04-18T14:27:14.745Z,31.30
2023-04-18T14:29:41.722Z,31.90
2023-04-18T14:32:08.719Z,31.90
2023-04-18T14:34:36.760Z,31.70
2023-04-18T14:37:05.079Z,32.10
2023-04-18T14:39:32.177Z,32.00
2023-04-18T14:41:59.041Z,32.20
2023-04-18T14:44:26.036Z,32.50
2023-04-18T14:46:53.071Z,33.10
2023-04-18T14:49:20.150Z,34.60
2023-04-18T14:51:48.247Z,35.00
2023-04-18T14:54:15.178Z,34.80
2023-04-18T14:56:43.205Z,34.50
2023-04-18T14:59:10.284Z,34.90
2023-04-18T15:01:37.299Z,34.80
2023-04-18T15:04:04.577Z,35.10
2023-04-18T15:06:32.736Z,34.60
2023-04-18T15:09:00.609Z,34.30
2023-04-18T15:11:27.572Z,34.90
2023-04-18T15:13:57.888Z,34.90
2023-04-18T15:16:28.406Z,35.40
2023-04-18T15:18:55.380Z,35.00
2023-04-18T15:21:22.462Z,35.00
2023-04-18T15:23:50.577Z,34.90
2023-04-18T15:26:17.578Z,35.00
2023-04-18T15:28:47.961Z,35.20
2023-04-18T15:31:16.122Z,35.60
2023-04-18T15:33:43.302Z,35.60
2023-04-18T15:36:10.445Z,33.50
2023-04-18T15:38:37.378Z,33.80
2023-04-18T15:41:04.299Z,32.90
2023-04-18T15:43:31.902Z,33.20
2023-04-18T15:45:59.067Z,32.80
2023-04-18T15:48:26.036Z,32.30
2023-04-18T15:50:55.241Z,33.20
2023-04-18T15:53:23.780Z,32.20
2023-04-18T15:55:51.486Z,32.30
2023-04-18T15:58:19.921Z,32.50
2023-04-18T16:00:46.826Z,32.60
2023-04-18T16:03:13.846Z,32.10
2023-04-18T16:05:41.344Z,31.70
2023-04-18T16:08:09.575Z,32.00
2023-04-18T16:10:38.232Z,31.60
2023-04-18T16:13:06.773Z,31.70
2023-04-18T16:15:41.835Z,33.70
2023-04-18T16:18:09.125Z,33.90
2023-04-18T16:20:36.587Z,33.80
2023-04-18T16:23:03.788Z,33.80
2023-04-18T16:25:30.847Z,34.40
2023-04-18T16:27:57.976Z,34.40
2023-04-18T16:30:24.777Z,34.70
2023-04-18T16:32:53.027Z,34.40
2023-04-18T16:35:20.170Z,34.60
2023-04-18T16:37:48.186Z,34.80
2023-04-18T16:40:15.386Z,35.10
2023-04-18T16:42:42.909Z,35.40
2023-04-18T16:45:09.983Z,35.40
2023-04-18T16:47:37.551Z,35.60
2023-04-18T16:50:04.913Z,35.40
2023-04-18T16:52:31.989Z,35.90
2023-04-18T16:55:02.156Z,35.30
2023-04-18T16:57:29.507Z,36.10
2023-04-18T16:59:58.397Z,35.80
2023-04-18T17:02:25.800Z,36.10
2023-04-18T17:04:52.786Z,35.90
2023-04-18T17:07:19.794Z,36.30
2023-04-18T17:09:46.853Z,36.20
2023-04-18T17:12:16.704Z,36.90
2023-04-18T17:14:43.702Z,37.00
2023-04-18T17:17:10.644Z,37.00
2023-04-18T17:19:37.614Z,37.00
2023-04-18T17:22:04.493Z,37.40
2023-04-18T17:24:32.557Z,37.30
2023-04-18T17:27:01.474Z,37.50
2023-04-18T17:29:28.372Z,37.90
2023-04-18T17:31:57.615Z,38.00
2023-04-18T17:34:24.579Z,37.90
2023-04-18T17:36:51.430Z,38.10
2023-04-18T17:39:18.249Z,38.60
2023-04-18T17:41:45.710Z,38.40
2023-04-18T17:44:12.645Z,38.70
2023-04-18T17:46:39.794Z,38.80
2023-04-18T17:49:06.818Z,38.90
2023-04-18T17:51:33.706Z,39.20
2023-04-18T17:54:00.805Z,39.10
2023-04-18T17:56:28.374Z,39.40
2023-04-18T17:58:56.710Z,39.50
2023-04-18T18:01:24.931Z,39.50
2023-04-18T18:03:53.860Z,39.90
2023-04-18T18:06:21.256Z,39.90
2023-04-18T18:08:48.457Z,40.40
2023-04-18T18:11:15.356Z,40.60
2023-04-18T18:13:43.159Z,40.60
2023-04-18T18:16:10.150Z,41.70
2023-04-18T18:18:37.486Z,41.60
2023-04-18T18:21:04.302Z,41.50
2023-04-18T18:23:31.434Z,40.60
2023-04-18T18:25:58.254Z,40.80
2023-04-18T18:28:25.053Z,40.70
2023-04-18T18:30:51.972Z,39.90
2023-04-18T18:33:19.002Z,39.80
2023-04-18T18:35:45.855Z,40.00
2023-04-18T18:38:12.844Z,39.90
2023-04-18T18:40:39.834Z,40.10
2023-04-18T18:43:06.634Z,40.10
2023-04-18T18:45:33.474Z,40.40
2023-04-18T18:48:00.567Z,40.40
2023-04-18T18:50:27.521Z,40.30
2023-04-18T18:52:54.430Z,41.20
2023-04-18T18:55:21.369Z,41.70
2023-04-18T18:57:48.268Z,41.50
2023-04-18T19:00:15.317Z,41.80
2023-04-18T19:02:42.353Z,41.90
2023-04-18T19:05:10.100Z,41.80
2023-04-18T19:07:37.033Z,41.90
2023-04-18T19:10:04.741Z,41.90
2023-04-18T19:12:31.592Z,41.80
2023-04-18T19:14:58.461Z,41.80
2023-04-18T19:17:25.797Z,42.30
2023-04-18T19:19:53.344Z,42.40
2023-04-18T19:22:20.266Z,42.10
2023-04-18T19:24:47.147Z,42.10
2023-04-18T19:27:13.900Z,42.50
2023-04-18T19:29:41.025Z,42.60
2023-04-18T19:32:08.047Z,42.60
2023-04-18T19:34:34.970Z,42.80
2023-04-18T19:37:03.060Z,42.80
2023-04-18T19:39:30.538Z,43.00
2023-04-18T19:41:57.534Z,42.90
2023-04-18T19:44:24.533Z,43.60
2023-04-18T19:46:51.590Z,44.00
2023-04-18T19:49:18.585Z,43.90
2023-04-18T19:51:45.507Z,44.30
2023-04-18T19:54:14.162Z,44.50
2023-04-18T19:56:41.345Z,44.90
2023-04-18T19:59:08.419Z,45.40
2023-04-18T20:01:36.511Z,45.70
2023-04-18T20:04:04.433Z,45.80
2023-04-18T20:06:31.554Z,46.40
2023-04-18T20:08:58.673Z,47.00
2023-04-18T20:11:25.733Z,47.80
2023-04-18T20:13:54.628Z,48.10
2023-04-18T20:16:22.287Z,47.90
2023-04-18T20:18:54.885Z,47.30
2023-04-18T20:21:22.014Z,47.80
2023-04-18T20:23:49.011Z,48.10
2023-04-18T20:26:15.906Z,48.50
2023-04-18T20:28:42.904Z,48.50
2023-04-18T20:31:11.929Z,48.90
2023-04-18T20:33:39.078Z,48.10
2023-04-18T20:36:09.149Z,48.80
2023-04-18T20:38:37.200Z,48.50
2023-04-18T20:41:04.347Z,48.80
2023-04-18T20:43:36.706Z,48.40
2023-04-18T20:46:03.661Z,48.70
2023-04-18T20:48:30.683Z,48.40
2023-04-18T20:50:57.672Z,48.70
2023-04-18T20:53:29.515Z,48.90
2023-04-18T20:55:56.385Z,48.40
2023-04-18T20:58:23.325Z,48.60
2023-04-18T21:00:50.468Z,48.50
2023-04-18T21:03:17.424Z,48.80
2023-04-18T21:05:45.200Z,49.00
2023-04-18T21:08:12.207Z,48.50
2023-04-18T21:10:39.834Z,48.60
2023-04-18T21:13:06.993Z,49.10
2023-04-18T21:15:35.294Z,49.10
2023-04-18T21:18:02.204Z,49.20
2023-04-18T21:20:29.201Z,49.20
2023-04-18T21:22:56.052Z,50.40
2023-04-18T21:25:22.996Z,50.90
2023-04-18T21:27:50.758Z,51.90
2023-04-18T21:30:17.863Z,51.60
2023-04-18T21:32:45.838Z,52.00
2023-04-18T21:35:13.141Z,51.90
2023-04-18T21:37:39.888Z,52.30
2023-04-18T21:40:07.450Z,53.60
2023-04-18T21:42:35.555Z,53.10
2023-04-18T21:45:02.670Z,52.80
2023-04-18T21:47:33.082Z,53.00
2023-04-18T21:50:00.076Z,53.00
2023-04-18T21:52:27.027Z,52.70
2023-04-18T21:54:53.944Z,53.00
2023-04-18T21:57:20.920Z,53.00
2023-04-18T21:59:47.754Z,53.40
2023-04-18T22:02:14.752Z,53.60
2023-04-18T22:04:42.942Z,53.80
2023-04-18T22:07:11.448Z,54.70
2023-04-18T22:09:38.586Z,54.90
2023-04-18T22:12:06.167Z,55.00
2023-04-18T22:14:33.174Z,54.90
2023-04-18T22:17:03.328Z,55.10
2023-04-18T22:19:31.418Z,54.30
2023-04-18T22:21:58.417Z,54.10
2023-04-18T22:24:26.081Z,54.10
2023-04-18T22:26:53.750Z,54.00
2023-04-18T22:29:20.838Z,53.70
2023-04-18T22:31:47.814Z,54.10
2023-04-18T22:34:14.987Z,53.50
2023-04-18T22:36:43.892Z,53.50
2023-04-18T22:39:12.256Z,53.30
2023-04-18T22:41:39.153Z,53.20
2023-04-18T22:44:07.209Z,53.30
2023-04-18T22:46:34.200Z,53.30
2023-04-18T22:49:01.312Z,53.30
2023-04-18T22:51:28.799Z,53.70
2023-04-18T22:53:56.605Z,55.50
2023-04-18T22:56:23.608Z,56.00
2023-04-18T22:58:50.622Z,56.10
2023-04-18T23:01:17.775Z,56.80
2023-04-18T23:03:45.047Z,57.00
2023-04-18T23:06:13.654Z,57.20
2023-04-18T23:08:40.469Z,57.10
2023-04-18T23:11:07.361Z,56.60
2023-04-18T23:13:34.399Z,55.20
2023-04-18T23:16:01.377Z,54.20
2023-04-18T23:18:31.346Z,54.20
2023-04-18T23:21:00.182Z,54.00
2023-04-18T23:23:27.180Z,53.90
2023-04-18T23:25:54.141Z,54.10
2023-04-18T23:28:21.120Z,53.70
2023-04-18T23:30:50.189Z,53.80
2023-04-18T23:33:17.022Z,53.40
2023-04-18T23:35:43.973Z,53.20
2023-04-18T23:38:11.060Z,52.80
2023-04-18T23:40:37.959Z,54.20
2023-04-18T23:43:04.855Z,52.90
2023-04-18T23:45:31.702Z,53.80
2023-04-18T23:47:58.471Z,54.00
2023-04-18T23:50:25.544Z,54.00
2023-04-18T23:52:52.490Z,54.10
2023-04-18T23:55:19.312Z,54.00
2023-04-18T23:57:46.144Z,54.00
